Akoviebo, Ivory Coast

8:05 AM GMT on April 29, 2017 (GMT +0000)
Yamoussoukro | | Change Station

Elev 699 ft 6.90 °N, 5.35 °W | Updated 1 hour ago

Partly Cloudy
Partly Cloudy
90 °F
Feels Like 96 °F
N
0
Wind Variable Wind from North

Today
High -- | Low -- °F
--% Chance of Precip.
Yesterday
High -- | Low -- °F
Precip. -- in
Pressure 29.95 in
Visibility 0.2 miles
Clouds
Heat Index 96 °F
Dew Point 72 °F
Humidity 55%
Rainfall 0.00 in
Snow Depth Not available.
6:08 AM 6:31 PM
Waxing Crescent, 12% visible
METAR DIYO 290700Z 00000KT 0400 FG NSC 32/22 Q1014 NOSIG
Pressure 29.95 in
Visibility 0.2 miles
Clouds
Heat Index 96 °F
Dew Point 72 °F
Humidity 55%
Rainfall 0.00 in
Snow Depth Not available.
6:08 AM 6:31 PM
Waxing Crescent, 12% visible
METAR DIYO 290700Z 00000KT 0400 FG NSC 32/22 Q1014 NOSIG

Get Severe Weather Alerts

Thanks for signing up!

Be on the lookout for a verification email in your inbox.

You'll start receiving the daily forecast at 8 AM.

×

10-Day Weather Forecast

No radar image for this location.
×

Almanac

Astronomy

Apr. 29, 2017 Rise Set
Actual Time
Civil Twilight
Nautical Twilight
Astronomical Twilight
Moon
Length of Visible Light
Length of Day
Tomorrow will be .
, % of the Moon is Illuminated

Today's Extremes

Country Highs Country Lows

Community

WunderPhotos

WunderBlog® & News

Nearby

Air Quality

  Air Quality AQ Index Pollutant
Not available.

Snow Depth

Station Depth Elevation

Earthquake Activity

City Distance Mag. Time & Date
Minimum magnitude displayed is 2.5.

Coastal Water Temperatures

Place Temperature

Stations

Nearby Weather Stations

Station Location Temp. Windchill Dew Point Humidity Wind Precip. Elev Updated Type